Hartford, Connecticut
Traffic Map
Current Weather Conditions
Hartford, Connecticut
Clear
Clear
32°
Feels Like: 21°
Wind Chill: 21° Ceiling: Unl
Heat Index: 32° Visibility: 10mi
Dew Point: 13° Wind: 17mph
Humidity: 45% Direction: 340° (NNW)
Pressure: 30.24in Gusts: 30mph
Raw Report DataKHFD 161253Z 34015G26KT 10SM CLR 00/M11 A3024 RMK AO2 PK WND 34031/1220 SLP241 T00001106
Traffic Incident Summary
Active as of:
Severity:
Category:
InformationThere was an issue retrieving the traffic information for this location. Please try a different location or try again shortly.
Advertisements
At Last! Intellicast now available for iPhone and Android